Time;durP1;ratioP1;P1;durP2;ratioP2;P2;SDS_P1;SDS_P2;PMS_P1;PMS_P2;Temp;Humidity;BMP_temperature;BMP_pressure;BME280_temperature;BME280_humidity;BME280_pressure;Samples;Min_cycle;Max_cycle;Signal;HPM_P1;HPM_P2
2024/03/21 00:00:59;;;;;;;160.37;72.87;;;;;6.10;97194.00;;;;5032895;28;20220;-86
2024/03/21 00:03:48;;;;;;;172.50;78.13;;;4.10;99.90;6.10;97195.00;;;;5050431;28;20449;-86
2024/03/21 00:06:35;;;;;;;156.20;70.33;;;4.00;99.90;6.50;97207.00;;;;5018740;28;20987;-86
2024/03/21 00:09:23;;;;;;;153.67;70.60;;;4.10;99.90;6.10;97195.00;;;;5032598;28;20475;-85
2024/03/21 00:12:10;;;;;;;157.20;72.03;;;4.10;99.90;6.10;97192.00;;;;5030998;28;20793;-86
2024/03/21 00:14:58;;;;;;;159.23;73.47;;;4.10;99.90;5.70;97190.00;;;;5034842;28;20443;-86
2024/03/21 00:17:47;;;;;;;167.23;77.70;;;4.00;99.90;5.70;97185.00;;;;5028714;28;20436;-86
2024/03/21 00:20:36;;;;;;;150.20;69.03;;;3.80;99.90;5.70;97184.00;;;;5043365;28;20234;-86
2024/03/21 00:23:23;;;;;;;158.03;72.03;;;3.80;99.90;5.80;97182.00;;;;5023107;28;20813;-86
2024/03/21 00:26:11;;;;;;;166.40;76.80;;;3.80;99.90;5.40;97181.00;;;;5030581;28;20427;-86
2024/03/21 00:28:58;;;;;;;149.33;67.97;;;3.70;99.90;5.70;97184.00;;;;5025478;28;20436;-86
2024/03/21 00:31:46;;;;;;;152.40;70.10;;;;;5.70;97181.00;;;;5020437;28;20452;-87
2024/03/21 00:34:34;;;;;;;152.63;70.27;;;;;6.10;97181.00;;;;5029210;28;20436;-85
2024/03/21 00:37:24;;;;;;;153.03;70.10;;;3.70;99.90;6.10;97172.00;;;;5018261;28;20425;-85
2024/03/21 00:40:12;;;;;;;147.83;66.97;;;3.70;99.90;6.00;97176.00;;;;5024737;28;21089;-86
2024/03/21 00:43:00;;;;;;;155.43;71.13;;;;;5.70;97172.00;;;;5037855;28;20423;-86
2024/03/21 00:45:47;;;;;;;158.23;76.17;;;3.70;99.90;5.50;97172.00;;;;5036098;28;20442;-86
2024/03/21 00:48:35;;;;;;;145.03;67.43;;;;;5.50;97167.00;;;;5027522;28;20439;-86
2024/03/21 00:51:22;;;;;;;154.87;71.40;;;3.60;99.90;5.10;97154.00;;;;5036125;28;20446;-88
2024/03/21 00:54:11;;;;;;;150.20;69.87;;;3.50;99.90;5.00;97158.00;;;;5029094;28;20431;-86
2024/03/21 00:56:58;;;;;;;145.67;68.07;;;3.40;99.90;5.00;97154.00;;;;5024617;28;20431;-86
2024/03/21 00:59:48;;;;;;;153.13;72.57;;;3.30;99.90;5.10;97159.00;;;;5030488;28;20489;-86
2024/03/21 01:02:35;;;;;;;141.33;67.83;;;;;5.20;97155.00;;;;5038552;28;20493;-87
2024/03/21 01:05:23;;;;;;;140.40;63.93;;;3.30;99.90;5.20;97155.00;;;;5032911;28;20436;-86
2024/03/21 01:08:11;;;;;;;143.57;67.13;;;3.30;99.90;5.20;97151.00;;;;5026351;28;20431;-86
2024/03/21 01:11:01;;;;;;;146.27;68.73;;;3.40;99.90;5.50;97151.00;;;;5032175;28;20488;-86
2024/03/21 01:13:48;;;;;;;177.80;79.50;;;;;5.90;97154.00;;;;5042985;23;20443;-68
2024/03/21 01:16:36;;;;;;;146.27;65.80;;;;;6.10;97159.00;;;;5038766;28;20432;-68
2024/03/21 01:19:23;;;;;;;147.90;69.93;;;;;6.10;97154.00;;;;5039891;28;20436;-68
2024/03/21 01:22:11;;;;;;;147.23;68.80;;;;;6.00;97150.00;;;;5018923;28;20508;-67
2024/03/21 01:24:58;;;;;;;150.33;69.43;;;3.60;99.90;5.70;97142.00;;;;5019431;28;20425;-67
2024/03/21 01:27:47;;;;;;;163.63;76.90;;;3.50;99.90;5.40;97137.00;;;;5032395;28;20903;-67
2024/03/21 01:30:34;;;;;;;149.60;70.03;;;3.50;99.90;5.50;97144.00;;;;5005607;28;20477;-68
2024/03/21 01:33:22;;;;;;;148.83;69.93;;;3.50;99.90;4.60;97138.00;;;;5016854;28;20429;-69
2024/03/21 01:36:10;;;;;;;145.07;67.73;;;3.40;99.90;4.60;97134.00;;;;5006119;28;20517;-69
2024/03/21 01:38:58;;;;;;;150.20;68.93;;;;;4.90;97127.00;;;;5017199;28;20504;-68
2024/03/21 01:41:45;;;;;;;159.47;73.53;;;;;5.40;97122.00;;;;5008905;28;20496;-68
2024/03/21 01:44:34;;;;;;;147.37;68.93;;;3.20;99.90;4.90;97118.00;;;;5009130;28;20440;-69
2024/03/21 01:47:22;;;;;;;143.33;66.90;;;;;4.50;97122.00;;;;5013139;28;20565;-68
2024/03/21 01:50:10;;;;;;;142.10;66.20;;;4.40;99.90;4.70;97122.00;;;;5012246;28;20488;-67
2024/03/21 01:52:57;;;;;;;148.10;69.70;;;;;5.20;97117.00;;;;5023608;28;20428;-68
2024/03/21 01:55:45;;;;;;;155.33;72.23;;;3.10;99.90;4.90;97116.00;;;;5029602;28;20447;-67
2024/03/21 01:58:32;;;;;;;137.47;65.23;;;;;5.20;97116.00;;;;5017253;28;20935;-68
2024/03/21 02:01:28;;;;;;;143.10;67.30;;;3.10;99.90;5.00;97104.00;;;;5014822;28;20456;-67
2024/03/21 02:04:16;;;;;;;136.23;64.60;;;3.10;99.90;5.40;97102.00;;;;5017590;28;20842;-68
2024/03/21 02:07:03;;;;;;;138.47;64.97;;;;;5.40;97117.00;;;;5019214;28;20423;-67
2024/03/21 02:09:51;;;;;;;158.13;74.43;;;;;5.30;97113.00;;;;5019373;28;20483;-66
2024/03/21 02:12:43;;;;;;;141.03;65.17;;;3.20;99.90;4.10;97098.00;;;;4993478;28;20950;-67
2024/03/21 02:15:32;;;;;;;137.23;65.57;;;2.80;99.90;4.20;97101.00;;;;4990853;28;20462;-68
2024/03/21 02:18:21;;;;;;;134.37;63.13;;;2.80;99.90;4.50;97099.00;;;;5013047;28;20427;-68
2024/03/21 02:24:12;;;;;;;129.60;62.10;;;2.80;99.90;5.00;97089.00;;;;5017902;28;20810;-69
2024/03/21 02:27:00;;;;;;;137.90;65.80;;;2.80;99.90;5.10;97105.00;;;;5026489;28;21228;-67
2024/03/21 02:29:48;;;;;;;152.10;70.37;;;;;5.20;97097.00;;;;5025073;28;20495;-68
2024/03/21 02:32:37;;;;;;;133.80;62.57;;;2.90;99.90;5.10;97104.00;;;;5024319;28;21339;-67
2024/03/21 02:35:24;;;;;;;138.43;64.80;;;;;5.10;97099.00;;;;5039174;28;20463;-68
2024/03/21 02:38:12;;;;;;;142.13;65.83;;;;;5.10;97092.00;;;;5029214;28;21044;-67
2024/03/21 02:41:01;;;;;;;145.33;68.23;;;3.00;99.90;5.10;97094.00;;;;5024347;28;20464;-67
2024/03/21 02:43:49;;;;;;;161.33;76.60;;;;;5.00;97089.00;;;;5031786;28;20498;-68
2024/03/21 02:46:38;;;;;;;141.93;67.20;;;;;4.70;97091.00;;;;5020126;28;20437;-68
2024/03/21 02:49:26;;;;;;;138.73;65.60;;;1.80;99.90;5.10;97098.00;;;;5018849;28;20435;-69
2024/03/21 02:52:13;;;;;;;139.80;65.77;;;;;4.90;97085.00;;;;5022009;28;20971;-67
2024/03/21 02:55:01;;;;;;;139.37;65.43;;;;;4.90;97094.00;;;;5022469;28;20428;-67
2024/03/21 02:57:49;;;;;;;151.70;70.40;;;2.90;99.90;4.60;97093.00;;;;5008643;28;20865;-67
2024/03/21 03:00:37;;;;;;;138.30;64.00;;;2.90;99.90;3.90;97083.00;;;;5022639;28;20985;-68
2024/03/21 03:03:24;;;;;;;137.97;64.33;;;2.80;99.90;3.60;97088.00;;;;5022941;28;20429;-70
2024/03/21 03:06:12;;;;;;;140.20;66.20;;;;;3.90;97079.00;;;;4994200;28;20428;-68
2024/03/21 03:09:01;;;;;;;139.33;67.77;;;;;4.20;97092.00;;;;5019118;28;20436;-67
2024/03/21 03:11:49;;;;;;;139.63;67.23;;;2.50;99.90;4.20;97086.00;;;;5008288;28;20528;-68
2024/03/21 03:14:37;;;;;;;134.37;63.57;;;2.70;99.90;5.20;97097.00;;;;5019576;28;20821;-68
2024/03/21 03:17:25;;;;;;;130.93;62.43;;;;;5.10;97099.00;;;;5019437;28;20426;-67
2024/03/21 03:20:12;;;;;;;139.23;64.67;;;2.70;99.90;5.10;97095.00;;;;5017613;28;20497;-69
2024/03/21 03:23:00;;;;;;;138.83;64.03;;;2.80;99.90;5.30;97105.00;;;;5011191;28;20503;-68
2024/03/21 03:25:47;;;;;;;148.80;70.60;;;2.80;99.90;5.20;97099.00;;;;5004165;28;20446;-68
2024/03/21 03:28:35;;;;;;;142.10;66.40;;;;;5.00;97093.00;;;;5021914;28;20433;-68
2024/03/21 03:31:24;;;;;;;141.27;66.73;;;2.90;99.90;4.60;97085.00;;;;5009466;28;20437;-67
2024/03/21 03:37:17;;;;;;;140.20;66.73;;;2.80;99.90;4.70;97093.00;;;;5005778;28;20433;-67
2024/03/21 03:40:09;;;;;;;130.27;61.53;;;2.70;99.90;4.70;97084.00;;;;5011302;28;20461;-67
2024/03/21 03:42:57;;;;;;;141.57;66.80;;;2.80;99.90;4.00;97083.00;;;;5007503;28;20479;-69
2024/03/21 03:45:46;;;;;;;145.90;69.60;;;2.70;99.90;4.00;97082.00;;;;5013785;28;20445;-68
2024/03/21 03:48:35;;;;;;;136.03;64.70;;;2.60;99.90;4.10;97090.00;;;;5016198;28;20495;-67
2024/03/21 03:51:23;;;;;;;142.87;67.87;;;;;4.40;97085.00;;;;5032479;28;20511;-67
2024/03/21 03:54:10;;;;;;;134.07;61.50;;;;;4.50;97084.00;;;;5007701;28;20449;-68
2024/03/21 03:56:58;;;;;;;139.33;65.77;;;;;4.60;97091.00;;;;5003152;28;20533;-67
2024/03/21 03:59:46;;;;;;;149.27;69.10;;;;;4.50;97077.00;;;;5016594;28;20897;-67
2024/03/21 04:02:35;;;;;;;133.37;62.73;;;;;4.60;97092.00;;;;5018259;28;20463;-68
2024/03/21 04:05:24;;;;;;;135.33;63.03;;;2.60;99.90;4.00;97077.00;;;;5013335;28;20445;-70
2024/03/21 04:08:11;;;;;;;132.60;62.70;;;2.60;99.90;4.20;97089.00;;;;4992953;28;20483;-70
2024/03/21 04:11:00;;;;;;;136.97;64.73;;;2.60;99.90;4.40;97091.00;;;;4997361;28;20472;-68
2024/03/21 04:13:47;;;;;;;156.67;74.30;;;2.60;99.90;4.80;97085.00;;;;5026141;28;20564;-69
2024/03/21 04:16:35;;;;;;;137.60;64.40;;;;;5.00;97089.00;;;;5020810;28;20454;-68
2024/03/21 04:19:23;;;;;;;137.33;64.50;;;;;4.80;97090.00;;;;5015580;28;20437;-68
2024/03/21 04:22:11;;;;;;;137.80;65.67;;;2.80;99.90;4.60;97080.00;;;;5003988;28;20570;-68
2024/03/21 04:24:59;;;;;;;149.93;71.23;;;;;4.30;97078.00;;;;5033706;28;20529;-68
2024/03/21 04:27:47;;;;;;;152.60;72.20;;;;;4.90;97091.00;;;;5013643;28;20421;-68
2024/03/21 04:30:36;;;;;;;140.83;65.10;;;;;4.80;97085.00;;;;5016143;28;20473;-68
2024/03/21 04:33:23;;;;;;;136.10;63.03;;;;;4.80;97075.00;;;;4997946;28;20440;-68
2024/03/21 04:36:11;;;;;;;145.40;67.90;;;2.80;99.90;4.90;97087.00;;;;5020186;28;20429;-69
2024/03/21 04:39:00;;;;;;;156.70;73.25;;;2.80;99.90;5.20;97088.00;;;;5007423;28;21004;-68
2024/03/21 04:41:48;;;;;;;146.70;68.95;;;2.80;99.90;5.20;97094.00;;;;5006782;28;20492;-69
2024/03/21 04:44:36;;;;;;;139.87;64.60;;;;;4.90;97081.00;;;;5007021;28;20453;-68
2024/03/21 04:47:25;;;;;;;142.20;66.00;;;;;4.30;97082.00;;;;5006995;28;20425;-67
2024/03/21 04:50:13;;;;;;;139.33;65.23;;;;;4.20;97085.00;;;;4995122;28;20457;-68
2024/03/21 04:53:00;;;;;;;132.63;62.00;;;2.60;99.90;4.50;97081.00;;;;5008772;28;20445;-69
2024/03/21 04:55:49;;;;;;;147.57;70.20;;;2.60;99.90;4.10;97084.00;;;;5010260;28;20437;-69
2024/03/21 04:58:36;;;;;;;148.90;71.30;;;;;4.10;97081.00;;;;4993342;28;20429;-69
2024/03/21 05:01:24;;;;;;;131.90;62.57;;;2.50;99.90;4.70;97095.00;;;;5000511;28;20467;-68
2024/03/21 05:04:11;;;;;;;135.93;63.50;;;2.60;99.90;4.70;97099.00;;;;5013844;28;20463;-69
2024/03/21 05:06:59;;;;;;;147.93;69.00;;;;;4.40;97087.00;;;;5021808;28;20443;-68
2024/03/21 05:09:46;;;;;;;147.27;70.17;;;2.60;99.90;4.50;97091.00;;;;5014498;28;20430;-70
2024/03/21 05:12:36;;;;;;;133.20;61.43;;;2.60;99.90;3.90;97085.00;;;;4996699;28;21141;-69
2024/03/21 05:15:23;;;;;;;125.03;58.70;;;;;4.80;97093.00;;;;5011856;28;20451;-67
2024/03/21 05:18:11;;;;;;;129.77;60.53;;;2.60;99.90;4.70;97085.00;;;;5006253;28;20436;-68
2024/03/21 05:20:57;;;;;;;153.33;71.77;;;2.70;99.90;4.40;97090.00;;;;5002014;28;21075;-69
2024/03/21 05:23:45;;;;;;;141.73;67.53;;;2.70;99.90;4.50;97096.00;;;;4993918;28;20440;-69
2024/03/21 05:26:33;;;;;;;138.60;64.70;;;2.80;99.90;4.20;97078.00;;;;4991306;28;20433;-69
2024/03/21 05:29:22;;;;;;;135.73;63.30;;;2.70;99.90;4.70;97104.00;;;;5007829;28;20436;-69
2024/03/21 05:32:09;;;;;;;134.20;64.03;;;2.70;99.90;4.20;97094.00;;;;4991687;28;20449;-69
2024/03/21 05:34:56;;;;;;;146.10;69.27;;;2.80;99.90;4.10;97091.00;;;;4992883;28;20437;-69
2024/03/21 05:37:44;;;;;;;147.57;69.97;;;2.70;99.90;4.30;97093.00;;;;5000096;28;20816;-70
2024/03/21 05:40:31;;;;;;;140.63;66.93;;;2.70;99.90;4.20;97079.00;;;;4997867;28;20469;-67
2024/03/21 05:43:21;;;;;;;136.70;64.20;;;2.70;99.90;4.50;97090.00;;;;4996994;28;20453;-68
2024/03/21 05:46:15;;;;;;;138.97;65.33;;;2.60;99.90;4.80;97093.00;;;;4982643;28;21099;-69
2024/03/21 05:49:03;;;;;;;145.53;67.40;;;;;5.00;97098.00;;;;5005271;28;20458;-69
2024/03/21 05:51:51;;;;;;;150.73;70.80;;;2.90;99.90;4.60;97087.00;;;;4993254;28;20462;-69
2024/03/21 05:54:38;;;;;;;143.03;67.17;;;;;5.30;97090.00;;;;4990422;28;20480;-67
2024/03/21 05:57:26;;;;;;;147.17;68.30;;;;;5.10;97097.00;;;;4974459;28;21229;-69
2024/03/21 06:00:17;;;;;;;141.20;63.97;;;3.30;99.90;5.40;97100.00;;;;4990095;28;20466;-69
2024/03/21 06:03:06;;;;;;;142.70;65.50;;;3.40;99.90;5.40;97105.00;;;;4977690;28;20434;-69
2024/03/21 06:05:53;;;;;;;174.43;80.93;;;3.40;99.90;5.00;97091.00;;;;4998186;28;20504;-70
2024/03/21 06:08:42;;;;;;;150.57;68.73;;;3.50;99.90;4.60;97098.00;;;;4972770;28;20445;-69
2024/03/21 06:11:31;;;;;;;145.50;67.23;;;3.40;99.90;5.20;97108.00;;;;4987811;28;20516;-68
2024/03/21 06:14:19;;;;;;;148.00;67.80;;;3.40;99.90;5.10;97099.00;;;;4979901;28;20450;-68
2024/03/21 06:17:07;;;;;;;152.57;71.00;;;;;5.50;97102.00;;;;4998354;28;20478;-69
2024/03/21 06:19:56;;;;;;;169.00;76.77;;;3.60;99.90;6.00;97109.00;;;;4994505;28;20434;-68
2024/03/21 06:22:47;;;;;;;151.77;69.83;;;3.60;99.90;5.90;97111.00;;;;4994947;28;20445;-68
2024/03/21 06:25:34;;;;;;;153.70;70.27;;;3.80;99.90;6.10;97118.00;;;;4982982;28;20442;-68
2024/03/21 06:28:22;;;;;;;154.07;72.57;;;3.90;99.90;5.60;97105.00;;;;4997848;28;20488;-70
2024/03/21 06:31:09;;;;;;;159.20;73.63;;;4.00;99.90;6.40;97120.00;;;;4991851;28;20982;-66
2024/03/21 06:33:57;;;;;;;164.07;74.87;;;;;6.70;97114.00;;;;5012359;28;20454;-68
2024/03/21 06:36:48;;;;;;;170.80;78.33;;;4.40;99.90;6.80;97118.00;;;;4998269;28;20450;-69
2024/03/21 06:39:35;;;;;;;165.80;75.23;;;;;7.10;97114.00;;;;4995537;28;20469;-68
2024/03/21 06:42:23;;;;;;;172.33;77.23;;;4.50;99.90;6.90;97117.00;;;;4997057;28;20481;-69
2024/03/21 06:45:10;;;;;;;178.47;79.67;;;4.70;99.90;7.30;97119.00;;;;4994422;28;20445;-68
2024/03/21 06:48:03;;;;;;;186.90;85.70;;;5.00;99.90;7.10;97121.00;;;;4978869;28;20508;-69
2024/03/21 06:50:50;;;;;;;188.37;85.10;;;5.00;99.90;7.40;97122.00;;;;4984482;28;20503;-70
2024/03/21 06:53:40;;;;;;;178.27;81.97;;;5.10;99.90;7.80;97121.00;;;;4980630;28;20593;-69
2024/03/21 06:56:26;;;;;;;174.90;79.37;;;5.40;99.90;8.60;97138.00;;;;5003238;28;20203;-68
2024/03/21 06:59:14;;;;;;;180.90;80.95;;;5.60;99.90;8.50;97139.00;;;;4995211;28;20249;-68
2024/03/21 07:02:02;;;;;;;190.07;83.63;;;;;8.80;97132.00;;;;4996601;28;20278;-68
2024/03/21 07:04:51;;;;;;;212.63;111.70;;;6.10;99.90;9.00;97130.00;;;;5010931;28;20199;-68
2024/03/21 07:07:37;;;;;;;195.20;86.53;;;6.30;99.90;8.90;97135.00;;;;4998667;28;20194;-69
2024/03/21 07:10:27;;;;;;;200.30;88.70;;;6.40;99.90;9.40;97142.00;;;;5002419;28;20215;-66
2024/03/21 07:13:14;;;;;;;206.77;92.70;;;6.60;99.90;10.20;97145.00;;;;5000682;28;20266;-69
2024/03/21 07:16:01;;;;;;;227.97;101.47;;;6.80;99.90;10.50;97144.00;;;;5005762;28;20222;-67
2024/03/21 07:18:49;;;;;;;227.03;99.13;;;7.10;99.90;10.40;97143.00;;;;4998554;28;20203;-69
2024/03/21 07:21:37;;;;;;;212.50;90.27;;;7.30;99.90;10.10;97145.00;;;;5010413;28;20266;-69
2024/03/21 07:24:23;;;;;;;224.10;97.00;;;7.40;99.90;10.50;97150.00;;;;4999056;28;20199;-69
2024/03/21 07:27:13;;;;;;;221.87;103.00;;;7.60;99.90;10.40;97160.00;;;;4990663;28;20660;-69
2024/03/21 07:30:00;;;;;;;232.87;107.57;;;7.60;99.90;11.00;97155.00;;;;4987617;28;20233;-69
2024/03/21 07:32:51;;;;;;;239.10;105.17;;;7.80;99.90;11.40;97153.00;;;;5000297;28;20206;-69
2024/03/21 07:35:37;;;;;;;230.83;101.93;;;8.00;99.90;11.50;97154.00;;;;4989425;28;20207;-69
2024/03/21 07:38:25;;;;;;;239.30;119.37;;;8.20;99.90;11.00;97142.00;;;;5001019;28;20229;-69
2024/03/21 07:41:12;;;;;;;249.33;126.43;;;8.30;99.90;11.70;97144.00;;;;4987109;28;20740;-69
2024/03/21 07:44:02;;;;;;;248.50;110.13;;;8.50;99.90;12.00;97156.00;;;;4992503;28;20225;-69
2024/03/21 07:46:49;;;;;;;258.37;116.40;;;8.70;99.90;12.00;97153.00;;;;4991637;28;20207;-69
2024/03/21 07:49:37;;;;;;;248.27;107.93;;;8.90;99.90;12.10;97159.00;;;;4991048;28;20202;-69
2024/03/21 07:52:23;;;;;;;249.70;111.47;;;9.10;99.90;11.50;97148.00;;;;4998977;28;20226;-70
2024/03/21 07:55:11;;;;;;;242.87;108.57;;;9.10;99.90;11.60;97150.00;;;;5001729;28;20225;-68
2024/03/21 07:58:00;;;;;;;264.73;121.27;;;9.10;99.90;11.60;97152.00;;;;4986577;28;20207;-68
2024/03/21 08:00:49;;;;;;;259.03;121.23;;;9.10;99.90;12.40;97154.00;;;;5002338;28;20699;-69
2024/03/21 08:03:37;;;;;;;247.03;111.27;;;9.20;99.90;12.70;97159.00;;;;4989924;28;20857;-69
2024/03/21 08:06:24;;;;;;;245.03;114.80;;;9.40;99.90;12.70;97162.00;;;;5002291;28;20213;-69
2024/03/21 08:09:12;;;;;;;249.03;115.17;;;9.50;99.90;12.50;97157.00;;;;4993012;28;20198;-69
2024/03/21 08:11:59;;;;;;;256.83;123.33;;;9.60;99.90;12.80;97162.00;;;;4992952;28;20237;-69
2024/03/21 08:14:47;;;;;;;251.40;119.60;;;9.70;99.90;13.00;97156.00;;;;4987901;28;20224;-69
2024/03/21 08:17:37;;;;;;;251.13;115.73;;;9.70;99.90;12.80;97163.00;;;;4981961;28;20229;-68
2024/03/21 08:20:24;;;;;;;248.43;118.40;;;9.80;99.90;12.40;97159.00;;;;4982954;28;20227;-69
2024/03/21 08:23:12;;;;;;;244.07;115.03;;;9.80;99.90;12.20;97165.00;;;;4982486;28;20294;-69
2024/03/21 08:26:03;;;;;;;267.70;129.87;;;9.80;99.90;12.00;97158.00;;;;4992007;28;20262;-69
2024/03/21 08:28:51;;;;;;;260.37;123.67;;;10.40;99.90;12.20;97162.00;;;;5001680;28;20215;-68
2024/03/21 08:31:38;;;;;;;246.37;117.87;;;9.70;99.90;12.30;97160.00;;;;4981610;28;20222;-68
2024/03/21 08:34:27;;;;;;;243.33;115.03;;;9.70;99.90;12.60;97164.00;;;;4997084;28;20264;-67
2024/03/21 08:37:15;;;;;;;248.17;117.63;;;9.80;99.90;12.90;97158.00;;;;4991164;28;20202;-68
2024/03/21 08:40:04;;;;;;;267.27;129.43;;;9.90;99.90;13.40;97172.00;;;;4981900;28;20230;-69
2024/03/21 08:42:51;;;;;;;259.13;124.40;;;10.00;99.90;13.00;97174.00;;;;4979607;28;20213;-68
2024/03/21 08:45:39;;;;;;;254.30;126.17;;;10.20;99.90;13.50;97173.00;;;;4986210;28;20619;-69
2024/03/21 08:48:27;;;;;;;251.83;123.07;;;10.30;99.90;13.00;97175.00;;;;4993675;28;20211;-69
2024/03/21 08:51:16;;;;;;;254.70;123.60;;;10.30;99.90;12.20;97165.00;;;;4980606;28;20773;-70
2024/03/21 08:54:04;;;;;;;260.17;127.13;;;10.30;99.90;13.20;97166.00;;;;4999048;28;20318;-68
2024/03/21 08:56:51;;;;;;;268.10;129.40;;;10.30;99.90;13.70;97176.00;;;;4986450;28;20231;-68
2024/03/21 08:59:39;;;;;;;261.77;125.60;;;10.50;99.90;13.50;97172.00;;;;4984809;28;20213;-70
2024/03/21 09:02:26;;;;;;;253.87;123.53;;;10.50;99.90;14.00;97178.00;;;;4989024;28;20203;-69
2024/03/21 09:05:14;;;;;;;256.77;124.17;;;10.70;99.90;13.80;97176.00;;;;4984587;28;20198;-69
2024/03/21 09:08:03;;;;;;;264.10;126.23;;;10.80;99.90;14.00;97171.00;;;;4988479;28;20664;-69
2024/03/21 09:10:50;;;;;;;279.93;137.90;;;10.90;99.90;13.60;97169.00;;;;4995968;28;20253;-68
2024/03/21 09:13:38;;;;;;;267.27;127.57;;;10.90;99.90;13.70;97168.00;;;;4996225;28;20199;-69
2024/03/21 09:16:25;;;;;;;264.07;125.03;;;10.90;99.90;14.00;97170.00;;;;4998966;28;20646;-70
2024/03/21 09:19:13;;;;;;;264.73;125.43;;;10.90;99.90;14.00;97172.00;;;;4979106;28;20198;-69
2024/03/21 09:22:00;;;;;;;280.03;138.67;;;11.00;99.90;14.10;97176.00;;;;4985485;28;20226;-69
2024/03/21 09:24:50;;;;;;;275.63;135.60;;;11.10;99.90;14.20;97170.00;;;;4978893;28;20705;-69
2024/03/21 09:27:38;;;;;;;266.27;130.47;;;11.10;99.90;13.90;97162.00;;;;4992092;28;20206;-69
2024/03/21 09:30:25;;;;;;;259.53;125.73;;;11.10;99.90;14.00;97170.00;;;;4993162;28;20218;-69
2024/03/21 09:33:13;;;;;;;268.37;128.87;;;11.10;99.90;14.30;97174.00;;;;4972969;28;20205;-69
2024/03/21 09:36:00;;;;;;;282.67;141.67;;;11.20;99.90;14.50;97168.00;;;;4983546;28;20211;-69
2024/03/21 09:38:48;;;;;;;271.23;132.40;;;11.20;99.90;14.60;97170.00;;;;4983999;28;20207;-68
2024/03/21 09:41:36;;;;;;;266.03;130.03;;;11.40;99.90;14.20;97163.00;;;;4991750;28;20222;-68
2024/03/21 09:44:25;;;;;;;275.13;136.70;;;11.30;99.90;14.60;97159.00;;;;4975218;28;20218;-68
2024/03/21 09:47:13;;;;;;;265.37;132.37;;;11.40;99.90;14.60;97159.00;;;;4969457;28;20281;-68
2024/03/21 09:50:02;;;;;;;285.83;141.57;;;11.40;99.90;14.80;97154.00;;;;4986000;28;20230;-68
2024/03/21 09:52:50;;;;;;;286.47;144.03;;;11.50;99.90;14.80;97156.00;;;;4972444;28;20802;-69
2024/03/21 09:55:38;;;;;;;267.30;130.80;;;11.50;99.90;14.40;97157.00;;;;4977744;28;20832;-69
2024/03/21 09:58:27;;;;;;;273.40;136.00;;;11.50;99.90;14.70;97164.00;;;;4977418;28;20210;-68
2024/03/21 10:01:22;;;;;;;282.53;136.83;;;11.60;99.90;14.90;97166.00;;;;4992262;28;20218;-68
2024/03/21 10:04:08;;;;;;;279.23;138.27;;;11.70;99.90;15.10;97156.00;;;;4978525;28;20226;-67
2024/03/21 10:06:56;;;;;;;281.97;140.40;;;11.80;99.90;14.50;97154.00;;;;4977506;28;20220;-68
2024/03/21 10:09:51;;;;;;;281.03;141.20;;;11.80;99.90;14.60;97160.00;;;;4979219;28;20220;-68
2024/03/21 10:12:38;;;;;;;270.97;134.10;;;11.80;99.90;15.20;97149.00;;;;4972612;28;20696;-68
2024/03/21 10:15:27;;;;;;;283.73;140.07;;;11.90;99.90;15.40;97144.00;;;;4982892;28;20222;-68
2024/03/21 10:18:15;;;;;;;281.20;139.63;;;11.90;99.90;15.30;97153.00;;;;4988980;28;20258;-69
2024/03/21 10:21:03;;;;;;;287.00;147.57;;;12.10;99.90;15.30;97150.00;;;;4981252;28;20738;-68
2024/03/21 10:24:01;;;;;;;300.63;154.10;;;12.20;99.90;15.60;97149.00;;;;4988928;28;20210;-68
2024/03/21 10:26:49;;;;;;;292.50;150.70;;;12.20;99.90;15.60;97142.00;;;;4974772;28;20613;-68
2024/03/21 10:29:36;;;;;;;287.00;143.37;;;12.30;99.90;15.70;97143.00;;;;4988023;28;20211;-68
2024/03/21 10:32:25;;;;;;;281.63;146.73;;;12.40;99.90;15.60;97139.00;;;;4996008;28;20222;-68
2024/03/21 10:35:16;;;;;;;288.30;144.00;;;12.40;99.90;15.90;97145.00;;;;4975228;28;20210;-68
2024/03/21 10:38:04;;;;;;;308.60;156.13;;;12.50;99.90;16.00;97134.00;;;;4972464;28;20217;-68
2024/03/21 10:40:56;;;;;;;310.10;159.60;;;12.60;99.90;16.10;97124.00;;;;4969887;28;20226;-68
2024/03/21 10:43:47;;;;;;;300.67;154.00;;;12.70;99.90;16.40;97124.00;;;;4989503;28;20209;-69
2024/03/21 10:46:36;;;;;;;311.03;156.70;;;12.90;99.90;16.60;97132.00;;;;4975678;28;20202;-68
2024/03/21 10:49:25;;;;;;;306.90;153.93;;;13.00;99.90;16.70;97134.00;;;;4989111;28;20268;-69
2024/03/21 10:52:15;;;;;;;309.77;154.23;;;13.20;99.90;16.80;97130.00;;;;4978142;28;20254;-68
2024/03/21 10:55:04;;;;;;;311.13;158.10;;;13.30;99.90;16.60;97127.00;;;;4976702;28;20587;-69
2024/03/21 10:57:54;;;;;;;324.30;164.90;;;13.40;99.90;16.70;97125.00;;;;4975446;28;20265;-68
2024/03/21 11:00:52;;;;;;;313.47;160.60;;;13.40;99.90;16.90;97139.00;;;;4992603;28;20226;-70
2024/03/21 11:03:47;;;;;;;322.17;169.37;;;13.50;99.90;17.00;97117.00;;;;4977328;28;20203;-71
2024/03/21 11:06:37;;;;;;;321.00;165.27;;;13.60;99.90;17.30;97123.00;;;;4979716;28;20202;-71
2024/03/21 11:09:24;;;;;;;325.70;169.87;;;13.70;99.90;17.40;97121.00;;;;4978474;28;20614;-71
2024/03/21 11:12:13;;;;;;;325.83;170.53;;;13.80;99.90;17.40;97118.00;;;;4984040;28;20238;-71
2024/03/21 11:15:00;;;;;;;336.03;182.60;;;13.90;99.90;16.90;97105.00;;;;4979610;28;20219;-72
2024/03/21 11:17:48;;;;;;;320.93;170.10;;;13.90;99.90;17.50;97114.00;;;;4987169;28;20699;-70
2024/03/21 11:20:34;;;;;;;320.10;170.63;;;14.00;99.90;17.70;97107.00;;;;4977517;28;20223;-72
2024/03/21 11:23:25;;;;;;;334.30;182.53;;;14.10;99.90;17.80;97099.00;;;;4989137;28;20207;-70
2024/03/21 11:26:15;;;;;;;341.83;182.57;;;14.20;99.90;18.10;97118.00;;;;4978360;28;20206;-70
2024/03/21 11:29:03;;;;;;;344.10;185.27;;;14.40;99.90;17.90;97116.00;;;;4975831;28;20215;-70
2024/03/21 11:31:50;;;;;;;340.47;190.17;;;14.50;99.90;17.90;97106.00;;;;4978500;28;20276;-70
2024/03/21 11:34:39;;;;;;;340.80;187.67;;;14.50;99.90;18.00;97105.00;;;;4991229;28;20203;-70
2024/03/21 11:37:26;;;;;;;336.90;187.47;;;14.60;99.90;18.30;97105.00;;;;4989492;28;20199;-70
2024/03/21 11:40:16;;;;;;;339.40;187.35;;;14.70;99.90;18.30;97101.00;;;;4976671;28;20218;-71
2024/03/21 11:43:04;;;;;;;351.70;199.20;;;14.80;99.90;17.90;97095.00;;;;4974096;28;20390;-71
2024/03/21 11:45:52;;;;;;;351.47;194.33;;;14.90;99.90;18.20;97092.00;;;;4989530;28;20210;-70
2024/03/21 11:48:39;;;;;;;347.37;192.30;;;14.90;99.90;18.30;97093.00;;;;4976501;28;20203;-70
2024/03/21 11:51:27;;;;;;;343.57;193.60;;;14.90;99.90;18.50;97093.00;;;;4988986;28;20292;-71
2024/03/21 11:54:15;;;;;;;351.00;199.40;;;15.00;99.90;18.70;97093.00;;;;4975263;28;20249;-70
2024/03/21 11:57:05;;;;;;;352.83;197.90;;;15.10;99.90;18.60;97084.00;;;;4978150;28;20252;-71
2024/03/21 11:59:53;;;;;;;364.90;211.03;;;15.30;99.90;18.90;97079.00;;;;4974229;28;20317;-70
2024/03/21 12:02:43;;;;;;;351.07;196.77;;;15.30;99.90;18.90;97086.00;;;;4989251;28;20628;-70
2024/03/21 12:05:29;;;;;;;376.37;216.97;;;15.40;99.90;18.60;97077.00;;;;4987459;28;20211;-70
2024/03/21 12:08:17;;;;;;;355.20;210.33;;;15.40;99.60;18.70;97077.00;;;;4974715;28;20924;-69
2024/03/21 12:11:13;;;;;;;366.60;217.97;;;15.40;99.80;18.90;97081.00;;;;4974242;28;20602;-70
2024/03/21 12:14:02;;;;;;;371.90;223.30;;;15.50;99.60;18.80;97087.00;;;;4973921;28;20244;-69
2024/03/21 12:16:49;;;;;;;367.70;214.67;;;15.50;99.30;18.80;97083.00;;;;4974049;28;20202;-71
2024/03/21 12:19:37;;;;;;;361.03;218.37;;;15.50;99.00;19.00;97076.00;;;;4972745;28;20210;-70
2024/03/21 12:22:24;;;;;;;365.37;221.03;;;15.50;99.40;18.90;97078.00;;;;4989460;28;20190;-70
2024/03/21 12:25:12;;;;;;;359.23;214.70;;;15.50;98.90;19.00;97079.00;;;;4991158;28;20225;-71
2024/03/21 12:27:59;;;;;;;370.23;221.80;;;15.60;99.00;19.00;97078.00;;;;4974670;28;20203;-70
2024/03/21 12:30:48;;;;;;;367.00;222.20;;;15.60;98.80;19.00;97084.00;;;;4988541;28;20222;-70